createdAt,value
2023-03-29T00:01:11.648Z,31.48
2023-03-29T00:04:02.410Z,31.37
2023-03-29T00:06:33.299Z,31.51
2023-03-29T00:09:05.473Z,31.48
2023-03-29T00:11:34.236Z,31.34
2023-03-29T00:14:02.733Z,31.41
2023-03-29T00:16:31.404Z,31.51
2023-03-29T00:19:00.371Z,31.53
2023-03-29T00:21:28.782Z,31.50
2023-03-29T00:23:59.986Z,31.47
2023-03-29T00:26:28.446Z,31.59
2023-03-29T00:28:56.890Z,31.45
2023-03-29T00:31:25.292Z,31.49
2023-03-29T00:33:53.840Z,31.51
2023-03-29T00:36:23.434Z,31.61
2023-03-29T00:38:52.068Z,31.48
2023-03-29T00:41:21.909Z,31.40
2023-03-29T00:43:57.052Z,31.60
2023-03-29T00:46:26.490Z,31.67
2023-03-29T00:48:58.770Z,31.64
2023-03-29T00:51:32.085Z,31.56
2023-03-29T00:54:03.151Z,31.54
2023-03-29T00:56:37.272Z,31.58
2023-03-29T00:59:11.157Z,31.30
2023-03-29T01:01:45.951Z,31.91
2023-03-29T01:04:21.560Z,31.92
2023-03-29T01:06:56.880Z,31.48
2023-03-29T01:09:29.909Z,31.82
2023-03-29T01:12:08.547Z,32.21
2023-03-29T01:14:42.970Z,32.31
2023-03-29T01:17:12.960Z,31.89
2023-03-29T01:19:47.108Z,32.13
2023-03-29T01:22:28.328Z,32.20
2023-03-29T01:25:12.558Z,32.36
2023-03-29T01:27:54.534Z,32.29
2023-03-29T01:30:29.881Z,32.06
2023-03-29T01:33:03.911Z,32.42
2023-03-29T01:35:39.210Z,32.29
2023-03-29T01:38:13.446Z,32.37
2023-03-29T01:40:42.123Z,32.35
2023-03-29T01:43:24.503Z,32.57
2023-03-29T01:46:04.191Z,32.57
2023-03-29T01:48:37.708Z,32.53
2023-03-29T01:51:11.647Z,32.73
2023-03-29T01:53:46.960Z,32.46
2023-03-29T01:56:19.818Z,32.69
2023-03-29T01:58:54.316Z,33.01
2023-03-29T02:01:27.129Z,33.02
2023-03-29T02:04:00.471Z,32.75
2023-03-29T02:06:31.459Z,32.45
2023-03-29T02:09:00.927Z,32.94
2023-03-29T02:11:29.671Z,32.88
2023-03-29T02:13:59.503Z,32.91
2023-03-29T02:16:28.848Z,32.71
2023-03-29T02:18:58.783Z,33.23
2023-03-29T02:21:31.708Z,33.20
2023-03-29T02:24:04.006Z,33.25
2023-03-29T02:26:32.469Z,33.47
2023-03-29T02:29:02.440Z,33.24
2023-03-29T02:31:37.202Z,33.19
2023-03-29T02:34:17.071Z,33.66
2023-03-29T02:36:51.638Z,33.74
2023-03-29T02:39:21.349Z,33.43
2023-03-29T02:41:52.221Z,33.63
2023-03-29T02:44:25.928Z,33.83
2023-03-29T02:46:59.156Z,33.66
2023-03-29T02:49:28.115Z,33.96
2023-03-29T02:52:04.536Z,34.05
2023-03-29T02:54:33.785Z,34.04
2023-03-29T02:57:06.895Z,34.16
2023-03-29T02:59:38.560Z,34.28
2023-03-29T03:02:07.468Z,34.32
2023-03-29T03:04:36.047Z,34.00
2023-03-29T03:07:06.068Z,34.39
2023-03-29T03:09:35.532Z,34.51
2023-03-29T03:12:04.133Z,34.16
2023-03-29T03:14:32.744Z,34.42
2023-03-29T03:17:04.576Z,33.97
2023-03-29T03:19:33.884Z,34.60
2023-03-29T03:22:02.379Z,34.40
2023-03-29T03:24:32.581Z,34.17
2023-03-29T03:27:01.013Z,34.62
2023-03-29T03:29:29.903Z,34.37
2023-03-29T03:31:58.429Z,34.38
2023-03-29T03:34:28.462Z,34.21
2023-03-29T03:36:56.860Z,34.22
2023-03-29T03:39:25.269Z,34.02
2023-03-29T03:41:53.703Z,34.25
2023-03-29T03:44:22.384Z,33.99
2023-03-29T03:46:51.047Z,33.92
2023-03-29T03:49:19.453Z,34.39
2023-03-29T03:51:50.380Z,33.92
2023-03-29T03:54:20.712Z,33.71
2023-03-29T03:56:49.316Z,33.82
2023-03-29T03:59:18.050Z,33.79
2023-03-29T04:01:46.848Z,33.78
2023-03-29T04:04:16.486Z,33.74
2023-03-29T04:06:45.176Z,33.84
2023-03-29T04:09:14.960Z,33.90
2023-03-29T04:11:43.374Z,34.35
2023-03-29T04:14:11.800Z,33.87
2023-03-29T04:16:40.190Z,34.58
2023-03-29T04:19:08.588Z,34.33
2023-03-29T04:21:37.009Z,34.27
2023-03-29T04:24:06.106Z,34.47
2023-03-29T04:26:36.058Z,33.84
2023-03-29T04:29:04.866Z,34.26
2023-03-29T04:31:33.963Z,34.00
2023-03-29T04:34:02.399Z,33.98
2023-03-29T04:36:31.009Z,34.08
2023-03-29T04:39:01.478Z,33.99
2023-03-29T04:41:30.018Z,34.14
2023-03-29T04:43:59.868Z,33.91
2023-03-29T04:46:28.346Z,34.29
2023-03-29T04:48:57.445Z,34.19
2023-03-29T04:51:25.908Z,34.40
2023-03-29T04:53:54.423Z,34.12
2023-03-29T04:56:23.144Z,33.96
2023-03-29T04:58:51.853Z,34.03
2023-03-29T05:01:21.698Z,34.24
2023-03-29T05:03:50.329Z,34.05
2023-03-29T05:06:18.747Z,34.33
2023-03-29T05:08:47.193Z,34.02
2023-03-29T05:11:15.627Z,34.05
2023-03-29T05:13:44.060Z,34.16
2023-03-29T05:16:12.532Z,34.35
2023-03-29T05:18:42.745Z,34.19
2023-03-29T05:21:11.179Z,34.22
2023-03-29T05:23:39.673Z,34.14
2023-03-29T05:26:09.977Z,34.03
2023-03-29T05:28:39.534Z,34.20
2023-03-29T05:31:08.717Z,34.18
2023-03-29T05:33:37.218Z,34.24
2023-03-29T05:36:10.935Z,34.36
2023-03-29T05:38:39.412Z,34.20
2023-03-29T05:41:08.716Z,34.28
2023-03-29T05:43:37.132Z,34.64
2023-03-29T05:46:07.496Z,34.46
2023-03-29T05:48:36.119Z,34.78
2023-03-29T05:51:06.327Z,34.59
2023-03-29T05:53:35.292Z,34.23
2023-03-29T05:56:04.082Z,34.36
2023-03-29T05:58:32.566Z,34.34
2023-03-29T06:01:05.570Z,34.41
2023-03-29T06:03:34.121Z,34.33
2023-03-29T06:06:04.647Z,34.22
2023-03-29T06:08:35.594Z,34.07
2023-03-29T06:11:08.892Z,34.07
2023-03-29T06:13:39.000Z,33.80
2023-03-29T06:16:08.838Z,34.02
2023-03-29T06:18:40.295Z,34.03
2023-03-29T06:21:09.538Z,33.72
2023-03-29T06:23:39.606Z,33.91
2023-03-29T06:26:08.678Z,33.68
2023-03-29T06:28:37.378Z,33.87
2023-03-29T06:31:06.547Z,33.60
2023-03-29T06:33:37.330Z,33.76
2023-03-29T06:36:06.407Z,33.48
2023-03-29T06:38:35.371Z,33.29
2023-03-29T06:41:08.471Z,33.43
2023-03-29T06:43:37.250Z,33.35
2023-03-29T06:46:08.833Z,33.32
2023-03-29T06:48:37.303Z,33.05
2023-03-29T06:51:07.589Z,32.82
2023-03-29T06:53:36.774Z,32.80
2023-03-29T06:56:09.444Z,32.60
2023-03-29T06:58:38.200Z,32.73
2023-03-29T07:01:07.695Z,32.57
2023-03-29T07:03:36.408Z,32.52
2023-03-29T07:06:10.115Z,32.33
2023-03-29T07:08:43.526Z,32.31
2023-03-29T07:11:15.147Z,32.06
2023-03-29T07:13:45.043Z,31.89
2023-03-29T07:16:14.877Z,32.09
2023-03-29T07:18:44.876Z,31.68
2023-03-29T07:21:14.492Z,31.90
2023-03-29T07:23:43.616Z,31.65
2023-03-29T07:26:13.917Z,31.31
2023-03-29T07:28:56.998Z,31.33
2023-03-29T07:31:25.596Z,31.32
2023-03-29T07:33:54.351Z,31.12
2023-03-29T07:36:22.934Z,30.63
2023-03-29T07:38:51.726Z,30.82
2023-03-29T07:41:22.783Z,30.57
2023-03-29T07:43:51.998Z,30.55
2023-03-29T07:46:20.582Z,30.34
2023-03-29T07:48:49.066Z,30.32
2023-03-29T07:51:17.919Z,29.92
2023-03-29T07:53:46.456Z,29.92
2023-03-29T07:56:15.689Z,29.72
2023-03-29T07:58:46.595Z,29.56
2023-03-29T08:01:18.779Z,29.41
2023-03-29T08:03:48.162Z,29.23
2023-03-29T08:06:17.305Z,29.00
2023-03-29T08:08:45.759Z,28.91
2023-03-29T08:11:14.319Z,28.92
2023-03-29T08:13:44.354Z,28.67
2023-03-29T08:16:12.855Z,28.56
2023-03-29T08:18:41.362Z,28.54
2023-03-29T08:21:10.240Z,28.37
2023-03-29T08:23:38.740Z,28.00
2023-03-29T08:26:08.717Z,27.95
2023-03-29T08:28:37.232Z,27.79
2023-03-29T08:31:09.841Z,27.59
2023-03-29T08:33:38.668Z,27.62
2023-03-29T08:36:08.515Z,27.46
2023-03-29T08:38:37.328Z,27.29
2023-03-29T08:41:19.820Z,27.03
2023-03-29T08:44:02.149Z,26.81
2023-03-29T08:46:40.199Z,26.63
2023-03-29T08:49:10.628Z,26.55
2023-03-29T08:51:44.017Z,26.18
2023-03-29T08:54:18.009Z,26.29
2023-03-29T08:56:47.959Z,26.23
2023-03-29T08:59:23.108Z,26.29
2023-03-29T09:01:57.047Z,25.95
2023-03-29T09:04:30.545Z,25.95
2023-03-29T09:06:59.499Z,25.71
2023-03-29T09:09:34.939Z,25.53
2023-03-29T09:12:18.161Z,25.30
2023-03-29T09:15:06.737Z,25.15
2023-03-29T09:17:49.793Z,25.33
2023-03-29T09:20:31.476Z,25.30
2023-03-29T09:23:23.449Z,25.21
2023-03-29T09:26:00.848Z,25.19
2023-03-29T09:28:37.552Z,25.05
2023-03-29T09:31:13.766Z,24.83
2023-03-29T09:33:47.889Z,24.72
2023-03-29T09:36:21.758Z,24.83
2023-03-29T09:38:54.490Z,24.87
2023-03-29T09:41:29.589Z,24.66
2023-03-29T09:44:01.610Z,24.55
2023-03-29T09:46:37.201Z,24.43
2023-03-29T09:49:16.069Z,24.49
2023-03-29T09:51:48.532Z,24.31
2023-03-29T09:54:17.035Z,24.14
2023-03-29T09:56:45.582Z,24.22
2023-03-29T09:59:14.660Z,24.37
2023-03-29T10:01:46.639Z,24.16
2023-03-29T10:04:17.822Z,24.26
2023-03-29T10:06:50.433Z,24.18
2023-03-29T10:09:22.652Z,24.15
2023-03-29T10:11:56.749Z,24.12
2023-03-29T10:14:35.683Z,23.93
2023-03-29T10:17:08.762Z,23.93
2023-03-29T10:19:38.697Z,23.92
2023-03-29T10:22:09.632Z,23.66
2023-03-29T10:24:38.125Z,23.89
2023-03-29T10:27:11.797Z,23.79
2023-03-29T10:29:42.713Z,23.87
2023-03-29T10:32:19.305Z,24.00
2023-03-29T10:34:50.161Z,23.83
2023-03-29T10:37:21.277Z,23.98
2023-03-29T10:39:50.308Z,24.10
2023-03-29T10:42:24.147Z,24.10
2023-03-29T10:44:57.915Z,24.21
2023-03-29T10:47:27.161Z,24.34
2023-03-29T10:49:59.345Z,24.04
2023-03-29T10:52:27.849Z,24.23
2023-03-29T10:54:59.328Z,24.27
2023-03-29T10:57:38.568Z,24.28
2023-03-29T11:00:19.801Z,24.05
2023-03-29T11:03:30.488Z,24.28
2023-03-29T11:06:11.154Z,24.28
2023-03-29T11:08:58.440Z,24.38
2023-03-29T11:12:15.080Z,24.34
2023-03-29T11:14:59.587Z,24.59
2023-03-29T11:17:42.944Z,24.33
2023-03-29T11:20:27.780Z,24.14
2023-03-29T11:23:16.480Z,24.24
2023-03-29T11:25:59.299Z,24.24
2023-03-29T11:28:40.682Z,24.37
2023-03-29T11:31:20.314Z,24.07
2023-03-29T11:34:03.237Z,24.07
2023-03-29T11:36:41.437Z,24.25
2023-03-29T11:39:20.379Z,24.40
2023-03-29T11:41:54.964Z,24.51
2023-03-29T11:44:31.020Z,24.61
2023-03-29T11:47:05.019Z,24.56
2023-03-29T11:49:39.624Z,24.55
2023-03-29T11:52:14.420Z,24.80
2023-03-29T11:54:49.196Z,24.85
2023-03-29T11:57:26.074Z,25.23
2023-03-29T12:00:02.917Z,24.96
2023-03-29T12:02:37.878Z,25.22
2023-03-29T12:05:15.480Z,25.30
2023-03-29T12:07:49.546Z,25.42
2023-03-29T12:10:23.730Z,25.04
2023-03-29T12:12:59.466Z,25.34
2023-03-29T12:15:32.115Z,25.26
2023-03-29T12:18:15.970Z,25.43
2023-03-29T12:20:47.838Z,25.64
2023-03-29T12:23:17.723Z,25.86
2023-03-29T12:25:58.392Z,26.11
2023-03-29T12:28:56.699Z,26.32
2023-03-29T12:31:34.317Z,26.21
2023-03-29T12:34:37.525Z,26.17
2023-03-29T12:37:38.790Z,26.29
2023-03-29T12:40:15.618Z,26.41
2023-03-29T12:42:55.034Z,26.30
2023-03-29T12:45:33.622Z,26.28
2023-03-29T12:48:03.598Z,26.31
2023-03-29T12:50:36.680Z,26.28
2023-03-29T12:53:15.247Z,26.27
2023-03-29T12:55:54.610Z,26.39
2023-03-29T12:58:38.686Z,26.41
2023-03-29T13:01:10.288Z,26.44
2023-03-29T13:03:51.900Z,26.50
2023-03-29T13:06:33.911Z,26.40
2023-03-29T13:09:06.160Z,26.37
2023-03-29T13:11:39.989Z,26.61
2023-03-29T13:14:17.947Z,26.75
2023-03-29T13:16:46.654Z,26.73
2023-03-29T13:19:32.254Z,26.84
2023-03-29T13:22:17.182Z,26.81
2023-03-29T13:25:11.133Z,26.60
2023-03-29T13:27:51.979Z,26.66
2023-03-29T13:30:43.859Z,26.56
2023-03-29T13:33:53.989Z,26.53
2023-03-29T13:36:39.634Z,26.86
2023-03-29T13:39:16.284Z,26.96
2023-03-29T13:41:51.740Z,27.16
2023-03-29T13:44:30.310Z,27.13
2023-03-29T13:47:39.805Z,27.16
2023-03-29T13:50:16.855Z,27.34
2023-03-29T13:52:59.024Z,27.42
2023-03-29T13:55:33.606Z,27.58
2023-03-29T13:58:10.846Z,27.71
2023-03-29T14:00:47.161Z,27.50
2023-03-29T14:03:22.216Z,27.57
2023-03-29T14:05:57.641Z,27.69
2023-03-29T14:08:32.418Z,27.99
2023-03-29T14:11:06.928Z,27.93
2023-03-29T14:13:36.425Z,28.28
2023-03-29T14:16:09.103Z,28.29
2023-03-29T14:18:44.696Z,28.43
2023-03-29T14:21:15.039Z,28.39
2023-03-29T14:23:47.886Z,28.67
2023-03-29T14:26:20.541Z,28.71
2023-03-29T14:28:51.750Z,28.75
2023-03-29T14:31:21.714Z,28.91
2023-03-29T14:33:56.110Z,28.89
2023-03-29T14:36:27.159Z,29.13
2023-03-29T14:38:59.673Z,29.03
2023-03-29T14:41:31.775Z,29.36
2023-03-29T14:44:01.308Z,29.19
2023-03-29T14:46:30.245Z,29.45
2023-03-29T14:49:02.161Z,29.47
2023-03-29T14:51:31.707Z,29.74
2023-03-29T14:54:03.050Z,29.73
2023-03-29T14:56:33.058Z,29.92
2023-03-29T14:59:06.043Z,30.08
2023-03-29T15:01:44.430Z,30.03
2023-03-29T15:04:14.812Z,30.27
2023-03-29T15:06:46.888Z,30.21
2023-03-29T15:09:19.765Z,30.50
2023-03-29T15:11:56.125Z,30.54
2023-03-29T15:14:27.761Z,30.62
2023-03-29T15:17:03.423Z,30.94
2023-03-29T15:19:34.412Z,30.89
2023-03-29T15:22:11.225Z,30.87
2023-03-29T15:24:49.839Z,31.20
2023-03-29T15:27:21.102Z,30.94
2023-03-29T15:29:49.865Z,31.19
2023-03-29T15:32:26.495Z,31.43
2023-03-29T15:35:02.541Z,31.29
2023-03-29T15:37:31.129Z,31.48
2023-03-29T15:39:59.968Z,31.53
2023-03-29T15:42:28.518Z,31.81
2023-03-29T15:44:57.700Z,32.00
2023-03-29T15:47:26.485Z,32.18
2023-03-29T15:49:55.014Z,32.17
2023-03-29T15:52:25.341Z,32.28
2023-03-29T15:54:53.885Z,32.27
2023-03-29T15:57:22.613Z,32.54
2023-03-29T15:59:51.232Z,32.44
2023-03-29T16:02:24.347Z,32.67
2023-03-29T16:04:53.538Z,32.59
2023-03-29T16:07:21.967Z,32.75
2023-03-29T16:09:51.837Z,32.94
2023-03-29T16:12:20.272Z,32.95
2023-03-29T16:14:48.732Z,33.21
2023-03-29T16:17:17.139Z,33.39
2023-03-29T16:19:45.591Z,33.46
2023-03-29T16:22:14.141Z,33.37
2023-03-29T16:24:43.836Z,33.45
2023-03-29T16:27:13.728Z,33.64
2023-03-29T16:29:42.174Z,33.74
2023-03-29T16:32:11.706Z,33.85
2023-03-29T16:34:41.491Z,34.10
2023-03-29T16:37:10.071Z,34.11
2023-03-29T16:39:38.716Z,34.26
2023-03-29T16:42:07.440Z,34.53
2023-03-29T16:44:37.288Z,34.73
2023-03-29T16:47:06.348Z,34.80
2023-03-29T16:49:34.900Z,35.08
2023-03-29T16:52:04.564Z,35.20
2023-03-29T16:54:33.127Z,35.27
2023-03-29T16:57:01.614Z,35.39
2023-03-29T16:59:30.752Z,35.47
2023-03-29T17:02:01.092Z,35.74
2023-03-29T17:04:29.955Z,35.66
2023-03-29T17:06:58.880Z,35.85
2023-03-29T17:09:29.653Z,36.00
2023-03-29T17:11:58.894Z,36.23
2023-03-29T17:14:27.537Z,36.42
2023-03-29T17:16:56.128Z,36.60
2023-03-29T17:19:26.084Z,36.82
2023-03-29T17:21:54.974Z,36.91
2023-03-29T17:24:24.059Z,36.99
2023-03-29T17:26:52.669Z,37.17
2023-03-29T17:29:21.726Z,37.24
2023-03-29T17:31:51.124Z,37.40
2023-03-29T17:34:20.935Z,37.56
2023-03-29T17:36:53.338Z,37.66
2023-03-29T17:39:25.262Z,37.65
2023-03-29T17:41:57.468Z,37.81
2023-03-29T17:44:26.349Z,37.81
2023-03-29T17:46:56.569Z,37.87
2023-03-29T17:49:26.067Z,37.94
2023-03-29T17:51:56.306Z,38.16
2023-03-29T17:54:24.897Z,38.07
2023-03-29T17:56:53.841Z,38.00
2023-03-29T17:59:25.012Z,37.99
2023-03-29T18:01:54.960Z,37.87
2023-03-29T18:04:25.294Z,37.83
2023-03-29T18:06:57.034Z,37.60
2023-03-29T18:09:30.770Z,37.69
2023-03-29T18:12:01.020Z,37.79
2023-03-29T18:14:31.888Z,37.57
2023-03-29T18:17:02.453Z,37.30
2023-03-29T18:19:31.545Z,37.42
2023-03-29T18:22:02.890Z,37.29
2023-03-29T18:24:33.329Z,37.26
2023-03-29T18:27:05.983Z,37.32
2023-03-29T18:29:35.433Z,37.19
2023-03-29T18:32:05.553Z,37.15
2023-03-29T18:34:35.200Z,36.85
2023-03-29T18:37:08.013Z,36.90
2023-03-29T18:39:37.867Z,36.76
2023-03-29T18:42:09.664Z,36.79
2023-03-29T18:44:42.635Z,36.80
2023-03-29T18:47:13.204Z,36.65
2023-03-29T18:49:47.180Z,36.77
2023-03-29T18:52:21.493Z,36.64
2023-03-29T18:54:52.061Z,36.63
2023-03-29T18:57:23.153Z,36.37
2023-03-29T18:59:53.000Z,36.67
2023-03-29T19:02:24.240Z,36.65
2023-03-29T19:04:54.141Z,36.63
2023-03-29T19:07:25.861Z,36.56
2023-03-29T19:09:57.157Z,36.39
2023-03-29T19:12:27.242Z,36.50
2023-03-29T19:14:57.648Z,36.26
2023-03-29T19:17:30.358Z,36.26
2023-03-29T19:20:00.981Z,36.05
2023-03-29T19:22:34.361Z,36.20
2023-03-29T19:25:05.362Z,36.05
2023-03-29T19:27:36.460Z,36.20
2023-03-29T19:30:10.143Z,36.10
2023-03-29T19:32:40.245Z,35.85
2023-03-29T19:35:20.128Z,35.89
2023-03-29T19:37:51.617Z,35.78
2023-03-29T19:40:23.721Z,35.75
2023-03-29T19:42:54.136Z,35.87
2023-03-29T19:45:23.797Z,35.73
2023-03-29T19:47:56.845Z,35.93
2023-03-29T19:50:28.238Z,35.89
2023-03-29T19:52:59.048Z,35.99
2023-03-29T19:55:28.781Z,36.07
2023-03-29T19:57:59.577Z,36.05
2023-03-29T20:00:29.220Z,36.20
2023-03-29T20:02:58.458Z,35.98
2023-03-29T20:05:27.785Z,36.08
2023-03-29T20:07:58.718Z,35.91
2023-03-29T20:10:28.584Z,35.94
2023-03-29T20:12:57.079Z,35.78
2023-03-29T20:15:26.890Z,35.75
2023-03-29T20:17:59.354Z,35.78
2023-03-29T20:20:30.028Z,35.60
2023-03-29T20:23:04.535Z,35.58
2023-03-29T20:25:34.682Z,35.55
2023-03-29T20:28:04.182Z,35.43
2023-03-29T20:30:32.781Z,35.46
2023-03-29T20:33:01.473Z,35.44
2023-03-29T20:35:30.111Z,35.23
2023-03-29T20:38:00.032Z,35.31
2023-03-29T20:40:30.112Z,35.82
2023-03-29T20:42:58.694Z,35.33
2023-03-29T20:45:27.637Z,35.46
2023-03-29T20:48:02.085Z,35.50
2023-03-29T20:50:31.387Z,35.52
2023-03-29T20:53:03.679Z,35.35
2023-03-29T20:55:33.203Z,35.34
2023-03-29T20:58:03.119Z,35.36
2023-03-29T21:00:35.484Z,35.41
2023-03-29T21:03:04.690Z,35.39
2023-03-29T21:05:35.375Z,35.32
2023-03-29T21:08:05.396Z,35.26
2023-03-29T21:10:33.834Z,35.23
2023-03-29T21:13:02.753Z,35.29
2023-03-29T21:15:32.100Z,35.10
2023-03-29T21:18:00.818Z,35.18
2023-03-29T21:20:29.358Z,35.18
2023-03-29T21:22:58.116Z,35.23
2023-03-29T21:25:28.062Z,35.18
2023-03-29T21:27:56.810Z,35.18
2023-03-29T21:30:25.285Z,35.19
2023-03-29T21:32:53.914Z,35.37
2023-03-29T21:35:22.510Z,35.25
2023-03-29T21:37:51.070Z,35.18
2023-03-29T21:40:19.683Z,35.18
2023-03-29T21:42:49.531Z,35.25
2023-03-29T21:45:18.478Z,35.22
2023-03-29T21:47:46.981Z,35.32
2023-03-29T21:50:16.374Z,35.36
2023-03-29T21:52:44.791Z,35.19
2023-03-29T21:55:13.463Z,35.42
2023-03-29T21:57:41.920Z,35.23
2023-03-29T22:00:15.604Z,35.26
2023-03-29T22:02:45.893Z,35.18
2023-03-29T22:05:14.974Z,35.37
2023-03-29T22:07:43.495Z,35.26
2023-03-29T22:10:13.972Z,35.29
2023-03-29T22:12:43.270Z,35.10
2023-03-29T22:15:15.218Z,35.35
2023-03-29T22:17:43.882Z,35.27
2023-03-29T22:20:14.561Z,35.32
2023-03-29T22:22:49.809Z,35.43
2023-03-29T22:25:19.268Z,35.19
2023-03-29T22:27:49.634Z,35.29
2023-03-29T22:30:19.774Z,35.43
2023-03-29T22:32:48.250Z,35.61
2023-03-29T22:35:17.000Z,35.47
2023-03-29T22:37:45.709Z,35.77
2023-03-29T22:40:14.907Z,35.91
2023-03-29T22:42:43.369Z,35.91
2023-03-29T22:45:12.642Z,35.86
2023-03-29T22:47:42.523Z,35.90
2023-03-29T22:50:12.145Z,36.15
2023-03-29T22:52:40.584Z,36.13
2023-03-29T22:55:10.082Z,36.25
2023-03-29T22:57:38.646Z,36.39
2023-03-29T23:00:10.531Z,36.49
2023-03-29T23:02:39.073Z,36.54
2023-03-29T23:05:10.156Z,36.54
2023-03-29T23:07:38.638Z,36.49
2023-03-29T23:10:09.803Z,36.74
2023-03-29T23:12:38.292Z,36.79
2023-03-29T23:15:08.922Z,36.85
2023-03-29T23:17:37.997Z,37.02
2023-03-29T23:20:11.188Z,37.11
2023-03-29T23:22:39.836Z,36.89
2023-03-29T23:25:09.633Z,37.01
2023-03-29T23:27:38.332Z,37.23
2023-03-29T23:30:09.899Z,37.40
2023-03-29T23:32:38.422Z,37.57
2023-03-29T23:35:09.595Z,37.66
2023-03-29T23:37:38.210Z,37.88
2023-03-29T23:40:11.789Z,37.39
2023-03-29T23:42:41.280Z,37.69
2023-03-29T23:45:13.436Z,37.93
2023-03-29T23:47:42.545Z,38.07
2023-03-29T23:50:15.520Z,38.54
2023-03-29T23:52:43.945Z,37.99
2023-03-29T23:55:15.785Z,38.48
2023-03-29T23:57:44.265Z,38.36
